createdAt,value
2022-12-22T00:00:40.494Z,7.70
2022-12-22T00:03:32.130Z,7.80
2022-12-22T00:06:17.725Z,7.80
2022-12-22T00:09:05.724Z,7.80
2022-12-22T00:11:52.045Z,7.80
2022-12-22T00:14:37.887Z,7.80
2022-12-22T00:17:36.078Z,7.80
2022-12-22T00:20:30.219Z,7.90
2022-12-22T00:23:15.792Z,7.80
2022-12-22T00:26:01.568Z,7.90
2022-12-22T00:28:47.382Z,7.90
2022-12-22T00:31:33.297Z,7.80
2022-12-22T00:34:20.631Z,7.90
2022-12-22T00:37:06.161Z,7.80
2022-12-22T00:39:51.540Z,7.90
2022-12-22T00:42:37.198Z,7.90
2022-12-22T00:45:23.364Z,7.90
2022-12-22T00:48:08.720Z,7.90
2022-12-22T00:50:55.767Z,7.90
2022-12-22T00:53:41.801Z,7.90
2022-12-22T00:56:28.080Z,7.90
2022-12-22T00:59:16.464Z,8.00
2022-12-22T01:02:02.257Z,8.00
2022-12-22T01:04:47.625Z,8.00
2022-12-22T01:07:37.728Z,8.00
2022-12-22T01:10:24.363Z,8.00
2022-12-22T01:13:09.948Z,8.00
2022-12-22T01:15:55.721Z,8.00
2022-12-22T01:18:40.984Z,8.00
2022-12-22T01:21:28.986Z,8.10
2022-12-22T01:24:15.955Z,8.10
2022-12-22T01:27:01.437Z,8.10
2022-12-22T01:29:47.105Z,8.10
2022-12-22T01:32:33.795Z,8.10
2022-12-22T01:35:19.318Z,8.10
2022-12-22T01:38:04.966Z,8.10
2022-12-22T01:40:52.129Z,8.10
2022-12-22T01:43:41.288Z,8.10
2022-12-22T01:46:41.190Z,8.10
2022-12-22T01:49:29.395Z,8.10
2022-12-22T01:52:15.384Z,8.10
2022-12-22T01:55:01.982Z,8.20
2022-12-22T01:57:50.397Z,8.20
2022-12-22T02:00:36.507Z,8.20
2022-12-22T02:03:22.760Z,8.20
2022-12-22T02:06:20.217Z,8.20
2022-12-22T02:09:10.043Z,8.20
2022-12-22T02:12:06.089Z,8.20
2022-12-22T02:15:01.127Z,8.20
2022-12-22T02:17:53.264Z,8.30
2022-12-22T02:20:54.091Z,8.30
2022-12-22T02:23:55.051Z,8.30
2022-12-22T02:26:46.869Z,8.30
2022-12-22T02:29:33.946Z,8.20
2022-12-22T02:32:19.483Z,8.20
2022-12-22T02:35:04.996Z,8.30
2022-12-22T02:38:03.315Z,8.30
2022-12-22T02:40:53.189Z,8.20
2022-12-22T02:43:59.209Z,8.20
2022-12-22T02:46:52.093Z,8.30
2022-12-22T02:49:43.378Z,8.30
2022-12-22T02:52:34.298Z,8.20
2022-12-22T02:55:20.943Z,8.30
2022-12-22T02:58:09.579Z,8.30
2022-12-22T03:00:57.521Z,8.20
2022-12-22T03:03:43.237Z,8.20
2022-12-22T03:06:28.701Z,8.30
2022-12-22T03:09:14.365Z,8.30
2022-12-22T03:12:00.137Z,8.30
2022-12-22T03:14:46.868Z,8.30
2022-12-22T03:17:33.687Z,8.30
2022-12-22T03:20:19.405Z,8.30
2022-12-22T03:23:04.869Z,8.40
2022-12-22T03:25:50.642Z,8.40
2022-12-22T03:28:18.677Z,8.30
2022-12-22T03:30:46.736Z,8.40
2022-12-22T03:33:16.174Z,8.40
2022-12-22T03:35:45.475Z,8.40
2022-12-22T03:38:13.587Z,8.40
2022-12-22T03:40:44.367Z,8.40
2022-12-22T03:43:31.277Z,8.40
2022-12-22T03:46:17.006Z,8.40
2022-12-22T03:49:07.543Z,8.40
2022-12-22T03:51:36.515Z,8.40
2022-12-22T03:54:04.806Z,8.40
2022-12-22T03:56:33.065Z,8.40
2022-12-22T03:59:01.296Z,8.50
2022-12-22T04:01:29.504Z,8.40
2022-12-22T04:03:58.995Z,8.40
2022-12-22T04:06:27.094Z,8.40
2022-12-22T04:08:55.293Z,8.40
2022-12-22T04:11:40.688Z,8.40
2022-12-22T04:14:08.720Z,8.40
2022-12-22T04:16:36.877Z,8.40
2022-12-22T04:19:08.019Z,8.30
2022-12-22T04:21:36.158Z,8.40
2022-12-22T04:24:04.866Z,8.40
2022-12-22T04:26:33.217Z,8.40
2022-12-22T04:29:01.534Z,8.40
2022-12-22T04:31:29.620Z,8.40
2022-12-22T04:33:57.675Z,8.40
2022-12-22T04:36:27.110Z,8.50
2022-12-22T04:38:55.157Z,8.40
2022-12-22T04:41:23.207Z,8.40
2022-12-22T04:43:51.260Z,8.40
2022-12-22T04:46:19.351Z,8.50
2022-12-22T04:48:47.440Z,8.50
2022-12-22T04:51:15.476Z,8.50
2022-12-22T04:53:44.978Z,8.50
2022-12-22T04:56:13.018Z,8.50
2022-12-22T04:58:41.086Z,8.50
2022-12-22T05:01:11.323Z,8.40
2022-12-22T05:03:39.603Z,8.40
2022-12-22T05:06:08.201Z,8.50
2022-12-22T05:08:36.603Z,8.50
2022-12-22T05:11:06.513Z,8.40
2022-12-22T05:13:34.887Z,8.50
2022-12-22T05:16:07.303Z,8.40
2022-12-22T05:18:35.946Z,8.50
2022-12-22T05:21:05.714Z,8.50
2022-12-22T05:23:34.020Z,8.50
2022-12-22T05:26:02.052Z,8.50
2022-12-22T05:28:32.257Z,8.50
2022-12-22T05:31:05.006Z,8.50
2022-12-22T05:33:33.231Z,8.60
2022-12-22T05:36:01.532Z,8.60
2022-12-22T05:38:29.958Z,8.60
2022-12-22T05:41:03.661Z,8.60
2022-12-22T05:43:34.172Z,8.60
2022-12-22T05:46:03.997Z,8.60
2022-12-22T05:48:38.095Z,8.60
2022-12-22T05:51:07.644Z,8.60
2022-12-22T05:53:35.825Z,8.60
2022-12-22T05:56:03.867Z,8.60
2022-12-22T05:58:33.338Z,8.60
2022-12-22T06:01:02.324Z,8.70
2022-12-22T06:03:31.608Z,8.60
2022-12-22T06:06:00.653Z,8.60
2022-12-22T06:08:29.224Z,8.60
2022-12-22T06:10:58.306Z,8.60
2022-12-22T06:13:27.433Z,8.60
2022-12-22T06:15:56.961Z,8.70
2022-12-22T06:18:25.105Z,8.60
2022-12-22T06:20:54.493Z,8.60
2022-12-22T06:23:23.114Z,8.70
2022-12-22T06:25:57.827Z,8.60
2022-12-22T06:28:26.134Z,8.70
2022-12-22T06:30:56.218Z,8.60
2022-12-22T06:33:24.735Z,8.70
2022-12-22T06:35:58.665Z,8.70
2022-12-22T06:38:28.247Z,8.70
2022-12-22T06:40:56.581Z,8.70
2022-12-22T06:43:23.934Z,8.70
2022-12-22T06:45:52.124Z,8.70
2022-12-22T06:48:21.837Z,8.70
2022-12-22T06:50:49.931Z,8.70
2022-12-22T06:53:18.262Z,8.70
2022-12-22T06:55:46.907Z,8.70
2022-12-22T06:58:15.192Z,8.70
2022-12-22T07:00:43.686Z,8.70
2022-12-22T07:03:11.858Z,8.70
2022-12-22T07:05:41.375Z,8.70
2022-12-22T07:08:09.581Z,8.70
2022-12-22T07:10:55.601Z,8.70
2022-12-22T07:13:24.291Z,8.70
2022-12-22T07:16:00.181Z,8.70
2022-12-22T07:18:30.761Z,8.70
2022-12-22T07:21:00.765Z,8.70
2022-12-22T07:23:29.898Z,8.70
2022-12-22T07:25:58.827Z,8.70
2022-12-22T07:28:27.132Z,8.70
2022-12-22T07:30:56.084Z,8.80
2022-12-22T07:33:24.605Z,8.80
2022-12-22T07:36:07.535Z,8.80
2022-12-22T07:38:37.459Z,8.80
2022-12-22T07:41:27.053Z,8.90
2022-12-22T07:43:55.370Z,8.90
2022-12-22T07:46:24.290Z,8.90
2022-12-22T07:49:09.787Z,8.80
2022-12-22T07:51:41.809Z,8.90
2022-12-22T07:54:11.233Z,8.90
2022-12-22T07:56:39.614Z,9.00
2022-12-22T07:59:07.822Z,9.00
2022-12-22T08:01:35.955Z,9.00
2022-12-22T08:04:04.542Z,9.00
2022-12-22T08:06:34.074Z,9.00
2022-12-22T08:09:04.560Z,9.00
2022-12-22T08:11:32.824Z,9.00
2022-12-22T08:14:01.787Z,9.10
2022-12-22T08:16:30.594Z,9.30
2022-12-22T08:18:58.792Z,9.30
2022-12-22T08:21:26.926Z,9.20
2022-12-22T08:23:54.962Z,9.20
2022-12-22T08:26:27.587Z,9.20
2022-12-22T08:28:59.383Z,9.20
2022-12-22T08:31:29.987Z,9.20
2022-12-22T08:33:59.952Z,9.20
2022-12-22T08:36:28.339Z,9.20
2022-12-22T08:38:57.476Z,9.20
2022-12-22T08:41:40.962Z,9.20
2022-12-22T08:44:09.094Z,9.20
2022-12-22T08:46:37.235Z,9.20
2022-12-22T08:49:05.350Z,9.20
2022-12-22T08:51:33.447Z,9.20
2022-12-22T08:54:04.966Z,9.20
2022-12-22T08:56:35.216Z,9.20
2022-12-22T08:59:05.411Z,9.30
2022-12-22T09:01:35.202Z,9.20
2022-12-22T09:04:03.984Z,9.20
2022-12-22T09:06:40.182Z,9.20
2022-12-22T09:09:11.334Z,9.20
2022-12-22T09:11:42.107Z,9.20
2022-12-22T09:14:11.867Z,9.10
2022-12-22T09:16:40.640Z,9.20
2022-12-22T09:19:09.236Z,9.20
2022-12-22T09:21:38.073Z,9.20
2022-12-22T09:24:07.578Z,9.20
2022-12-22T09:26:35.903Z,9.30
2022-12-22T09:29:06.001Z,9.40
2022-12-22T09:31:34.221Z,9.50
2022-12-22T09:34:02.555Z,9.50
2022-12-22T09:36:33.754Z,9.60
2022-12-22T09:39:06.201Z,9.60
2022-12-22T09:41:37.827Z,9.70
2022-12-22T09:44:14.132Z,9.70
2022-12-22T09:46:42.427Z,9.80
2022-12-22T09:49:15.507Z,9.90
2022-12-22T09:51:45.777Z,10.00
2022-12-22T09:54:15.341Z,10.10
2022-12-22T09:56:44.081Z,10.20
2022-12-22T09:59:16.564Z,10.30
2022-12-22T10:01:59.122Z,10.40
2022-12-22T10:04:40.070Z,10.50
2022-12-22T10:07:17.943Z,10.70
2022-12-22T10:09:51.263Z,10.80
2022-12-22T10:12:23.555Z,10.90
2022-12-22T10:14:54.750Z,10.90
2022-12-22T10:17:25.924Z,11.00
2022-12-22T10:19:55.317Z,10.90
2022-12-22T10:22:35.745Z,10.80
2022-12-22T10:25:06.298Z,10.70
2022-12-22T10:27:42.961Z,10.70
2022-12-22T10:30:24.120Z,10.80
2022-12-22T10:33:03.979Z,10.90
2022-12-22T10:35:45.421Z,11.00
2022-12-22T10:38:21.944Z,11.10
2022-12-22T10:40:58.251Z,11.10
2022-12-22T10:43:33.087Z,11.00
2022-12-22T10:46:03.449Z,11.00
2022-12-22T10:48:34.542Z,10.90
2022-12-22T10:51:03.498Z,10.80
2022-12-22T10:53:44.208Z,10.70
2022-12-22T10:56:25.019Z,10.70
2022-12-22T10:58:55.942Z,10.70
2022-12-22T11:01:32.040Z,10.70
2022-12-22T11:04:16.267Z,10.70
2022-12-22T11:06:45.683Z,10.70
2022-12-22T11:09:32.454Z,10.60
2022-12-22T11:12:07.098Z,10.60
2022-12-22T11:14:47.857Z,10.70
2022-12-22T11:17:23.967Z,10.60
2022-12-22T11:20:04.284Z,10.60
2022-12-22T11:22:39.234Z,10.60
2022-12-22T11:25:24.875Z,10.60
2022-12-22T11:28:07.998Z,10.60
2022-12-22T11:30:45.228Z,10.60
2022-12-22T11:33:37.652Z,10.50
2022-12-22T11:36:09.817Z,10.50
2022-12-22T11:38:49.374Z,10.50
2022-12-22T11:41:35.997Z,10.50
2022-12-22T11:44:24.355Z,10.50
2022-12-22T11:46:58.216Z,10.60
2022-12-22T11:49:40.846Z,10.60
2022-12-22T11:52:23.613Z,10.60
2022-12-22T11:55:25.743Z,10.60
2022-12-22T11:58:06.962Z,10.60
2022-12-22T12:01:13.669Z,10.60
2022-12-22T12:03:51.304Z,10.70
2022-12-22T12:06:29.464Z,10.70
2022-12-22T12:09:13.422Z,10.70
2022-12-22T12:11:48.462Z,10.70
2022-12-22T12:14:25.615Z,10.70
2022-12-22T12:16:59.623Z,10.70
2022-12-22T12:19:49.826Z,10.70
2022-12-22T12:22:33.307Z,10.80
2022-12-22T12:25:03.148Z,10.80
2022-12-22T12:27:42.920Z,10.90
2022-12-22T12:33:08.366Z,10.90
2022-12-22T12:35:45.519Z,10.90
2022-12-22T12:38:56.862Z,10.90
2022-12-22T12:41:21.811Z,10.90
2022-12-22T12:43:51.913Z,10.90
2022-12-22T12:46:45.229Z,10.80
2022-12-22T12:49:49.858Z,10.80
2022-12-22T12:52:17.907Z,10.70
2022-12-22T12:54:48.175Z,10.70
2022-12-22T12:57:30.599Z,10.70
2022-12-22T12:59:59.675Z,10.70
2022-12-22T13:02:39.098Z,10.60
2022-12-22T13:05:33.320Z,10.60
2022-12-22T13:08:22.321Z,10.50
2022-12-22T13:11:44.765Z,10.50
2022-12-22T13:14:11.312Z,10.50
2022-12-22T13:16:41.068Z,10.40
2022-12-22T13:19:27.667Z,10.50
2022-12-22T13:21:57.829Z,10.50
2022-12-22T13:24:30.476Z,10.50
2022-12-22T13:27:04.596Z,10.50
2022-12-22T13:29:43.556Z,10.50
2022-12-22T13:32:25.286Z,10.50
2022-12-22T13:37:54.790Z,10.50
2022-12-22T13:40:24.459Z,10.40
2022-12-22T13:42:54.646Z,10.40
2022-12-22T13:45:34.170Z,10.40
2022-12-22T13:48:07.533Z,10.40
2022-12-22T13:50:39.120Z,10.40
2022-12-22T13:53:09.690Z,10.40
2022-12-22T13:55:38.742Z,10.30
2022-12-22T13:58:23.979Z,10.30
2022-12-22T14:01:04.472Z,10.30
2022-12-22T14:03:58.684Z,10.30
2022-12-22T14:06:29.225Z,10.30
2022-12-22T14:09:11.837Z,10.20
2022-12-22T14:11:45.549Z,10.20
2022-12-22T14:14:20.627Z,10.20
2022-12-22T14:16:52.275Z,10.10
2022-12-22T14:19:22.394Z,10.00
2022-12-22T14:21:56.733Z,9.90
2022-12-22T14:24:29.250Z,9.90
2022-12-22T14:26:59.260Z,9.90
2022-12-22T14:29:29.652Z,9.90
2022-12-22T14:32:01.586Z,9.90
2022-12-22T14:34:32.146Z,9.80
2022-12-22T14:37:01.325Z,9.80
2022-12-22T14:39:31.990Z,9.80
2022-12-22T14:42:01.839Z,9.80
2022-12-22T14:44:31.813Z,9.80
2022-12-22T14:47:16.040Z,9.80
2022-12-22T14:49:53.047Z,9.80
2022-12-22T14:52:25.610Z,9.80
2022-12-22T14:54:55.240Z,9.80
2022-12-22T14:57:32.073Z,9.70
2022-12-22T15:00:02.870Z,9.60
2022-12-22T15:02:39.090Z,9.50
2022-12-22T15:05:26.418Z,9.50
2022-12-22T15:08:06.682Z,9.40
2022-12-22T15:10:41.025Z,9.30
2022-12-22T15:13:16.862Z,9.30
2022-12-22T15:15:45.132Z,9.30
2022-12-22T15:18:16.143Z,9.30
2022-12-22T15:20:44.302Z,9.30
2022-12-22T15:23:16.944Z,9.30
2022-12-22T15:25:45.995Z,9.30
2022-12-22T15:28:14.282Z,9.30
2022-12-22T15:30:43.310Z,9.30
2022-12-22T15:33:15.965Z,9.20
2022-12-22T15:35:45.585Z,9.20
2022-12-22T15:38:15.543Z,9.20
2022-12-22T15:40:43.885Z,9.20
2022-12-22T15:43:36.565Z,9.00
2022-12-22T15:46:00.855Z,9.00
2022-12-22T15:48:34.009Z,9.00
2022-12-22T15:51:03.615Z,8.90
2022-12-22T15:53:32.896Z,8.70
2022-12-22T15:56:01.511Z,8.60
2022-12-22T15:58:33.495Z,8.50
2022-12-22T16:01:01.688Z,8.50
2022-12-22T16:03:31.302Z,8.40
2022-12-22T16:06:00.612Z,8.30
2022-12-22T16:08:31.648Z,8.30
2022-12-22T16:10:59.985Z,8.30
2022-12-22T16:13:29.534Z,8.40
2022-12-22T16:15:58.810Z,8.40
2022-12-22T16:18:27.018Z,8.40
2022-12-22T16:20:58.951Z,8.40
2022-12-22T16:23:28.309Z,8.40
2022-12-22T16:26:02.012Z,8.40
2022-12-22T16:28:31.265Z,8.40
2022-12-22T16:31:00.456Z,8.50
2022-12-22T16:33:29.035Z,8.40
2022-12-22T16:35:58.463Z,8.40
2022-12-22T16:38:26.542Z,8.40
2022-12-22T16:40:55.021Z,8.50
2022-12-22T16:46:17.062Z,8.50
2022-12-22T16:48:48.032Z,8.50
2022-12-22T16:51:20.413Z,8.40
2022-12-22T16:53:48.707Z,8.30
2022-12-22T16:56:20.246Z,8.30
2022-12-22T16:58:49.089Z,8.20
2022-12-22T17:01:32.930Z,8.20
2022-12-22T17:04:05.364Z,8.20
2022-12-22T17:06:35.545Z,8.10
2022-12-22T17:09:05.765Z,8.10
2022-12-22T17:11:34.570Z,8.10
2022-12-22T17:14:07.017Z,8.10
2022-12-22T17:16:35.370Z,8.10
2022-12-22T17:19:03.548Z,8.00
2022-12-22T17:21:31.630Z,8.00
2022-12-22T17:24:04.261Z,8.00
2022-12-22T17:26:35.416Z,7.90
2022-12-22T17:29:03.697Z,7.90
2022-12-22T17:31:31.810Z,7.90
2022-12-22T17:33:59.952Z,7.90
2022-12-22T17:36:35.345Z,7.80
2022-12-22T17:39:05.892Z,7.80
2022-12-22T17:41:34.197Z,7.80
2022-12-22T17:44:02.237Z,7.80
2022-12-22T17:46:30.392Z,7.90
2022-12-22T17:48:58.538Z,7.90
2022-12-22T17:51:29.856Z,7.90
2022-12-22T17:53:59.809Z,7.90
2022-12-22T17:56:31.584Z,7.90
2022-12-22T17:58:59.672Z,7.90
2022-12-22T18:01:29.726Z,7.90
2022-12-22T18:03:58.127Z,7.90
2022-12-22T18:06:30.695Z,7.90
2022-12-22T18:08:59.105Z,7.80
2022-12-22T18:11:29.122Z,7.80
2022-12-22T18:13:58.229Z,7.80
2022-12-22T18:16:26.522Z,7.90
2022-12-22T18:18:54.552Z,7.90
2022-12-22T18:21:25.045Z,7.90
2022-12-22T18:23:54.110Z,7.90
2022-12-22T18:26:24.292Z,7.90
2022-12-22T18:28:54.906Z,7.90
2022-12-22T18:31:23.846Z,7.90
2022-12-22T18:33:52.314Z,7.90
2022-12-22T18:36:24.784Z,8.00
2022-12-22T18:38:52.915Z,7.90
2022-12-22T18:41:23.313Z,8.00
2022-12-22T18:43:53.041Z,8.00
2022-12-22T18:46:21.376Z,8.00
2022-12-22T18:48:49.515Z,8.00
2022-12-22T18:51:20.706Z,8.10
2022-12-22T18:53:50.206Z,8.10
2022-12-22T18:56:18.743Z,8.10
2022-12-22T18:58:47.146Z,8.10
2022-12-22T19:01:21.658Z,8.10
2022-12-22T19:03:50.070Z,8.10
2022-12-22T19:06:21.192Z,8.10
2022-12-22T19:08:49.861Z,8.10
2022-12-22T19:11:19.626Z,8.00
2022-12-22T19:13:49.819Z,8.00
2022-12-22T19:16:22.231Z,8.00
2022-12-22T19:18:50.575Z,8.00
2022-12-22T19:21:20.521Z,8.00
2022-12-22T19:23:49.764Z,8.00
2022-12-22T19:26:22.973Z,8.00
2022-12-22T19:28:54.039Z,8.10
2022-12-22T19:31:25.951Z,8.10
2022-12-22T19:33:54.908Z,8.00
2022-12-22T19:36:26.511Z,8.00
2022-12-22T19:39:02.668Z,8.10
2022-12-22T19:41:39.729Z,8.10
2022-12-22T19:44:24.420Z,8.20
2022-12-22T19:46:55.273Z,8.10
2022-12-22T19:49:27.007Z,8.10
2022-12-22T19:51:56.532Z,8.20
2022-12-22T19:54:24.839Z,8.20
2022-12-22T19:56:55.444Z,8.10
2022-12-22T19:59:32.339Z,8.20
2022-12-22T20:02:04.370Z,8.20
2022-12-22T20:04:32.556Z,8.30
2022-12-22T20:07:00.779Z,8.30
2022-12-22T20:09:29.059Z,8.40
2022-12-22T20:11:57.197Z,8.30
2022-12-22T20:14:25.235Z,8.30
2022-12-22T20:16:53.365Z,8.30
2022-12-22T20:19:22.900Z,8.30
2022-12-22T20:21:51.383Z,8.40
2022-12-22T20:24:23.712Z,8.40
2022-12-22T20:26:54.634Z,8.40
2022-12-22T20:29:24.185Z,8.40
2022-12-22T20:31:52.402Z,8.40
2022-12-22T20:34:21.885Z,8.40
2022-12-22T20:36:50.127Z,8.40
2022-12-22T20:39:20.499Z,8.40
2022-12-22T20:41:52.867Z,8.40
2022-12-22T20:44:22.347Z,8.30
2022-12-22T20:46:50.511Z,8.40
2022-12-22T20:49:18.678Z,8.40
2022-12-22T20:51:48.587Z,8.40
2022-12-22T20:54:17.022Z,8.30
2022-12-22T20:56:45.980Z,8.40
2022-12-22T20:59:16.997Z,8.30
2022-12-22T21:01:45.403Z,8.30
2022-12-22T21:04:14.982Z,8.30
2022-12-22T21:06:47.459Z,8.30
2022-12-22T21:09:17.193Z,8.30
2022-12-22T21:11:45.559Z,8.30
2022-12-22T21:14:14.606Z,8.30
2022-12-22T21:16:43.269Z,8.30
2022-12-22T21:19:18.021Z,8.20
2022-12-22T21:21:46.339Z,8.20
2022-12-22T21:24:16.561Z,8.20
2022-12-22T21:26:48.534Z,8.30
2022-12-22T21:29:21.436Z,8.20
2022-12-22T21:31:49.705Z,8.30
2022-12-22T21:34:18.038Z,8.30
2022-12-22T21:36:48.583Z,8.30
2022-12-22T21:39:23.835Z,8.30
2022-12-22T21:42:04.749Z,8.30
2022-12-22T21:44:35.910Z,8.20
2022-12-22T21:47:04.295Z,8.30
2022-12-22T21:49:34.343Z,8.30
2022-12-22T21:52:02.588Z,8.30
2022-12-22T21:54:32.127Z,8.30
2022-12-22T21:57:00.330Z,8.30
2022-12-22T21:59:28.513Z,8.40
2022-12-22T22:01:57.402Z,8.30
2022-12-22T22:04:25.780Z,8.30
2022-12-22T22:06:53.794Z,8.30
2022-12-22T22:09:21.835Z,8.30
2022-12-22T22:12:08.832Z,8.30
2022-12-22T22:14:37.152Z,8.30
2022-12-22T22:17:05.195Z,8.30
2022-12-22T22:19:33.258Z,8.30
2022-12-22T22:22:01.299Z,8.30
2022-12-22T22:24:31.165Z,8.40
2022-12-22T22:27:00.589Z,8.30
2022-12-22T22:29:28.664Z,8.40
2022-12-22T22:31:56.711Z,8.30
2022-12-22T22:34:24.832Z,8.30
2022-12-22T22:36:53.068Z,8.30
2022-12-22T22:39:21.176Z,8.40
2022-12-22T22:41:49.236Z,8.40
2022-12-22T22:44:18.754Z,8.40
2022-12-22T22:46:46.860Z,8.40
2022-12-22T22:49:15.646Z,8.40
2022-12-22T22:51:43.684Z,8.40
2022-12-22T22:54:13.141Z,8.30
2022-12-22T22:56:41.188Z,8.40
2022-12-22T22:59:09.270Z,8.40
2022-12-22T23:01:40.146Z,8.40
2022-12-22T23:04:09.010Z,8.40
2022-12-22T23:06:37.257Z,8.50
2022-12-22T23:09:05.433Z,8.50
2022-12-22T23:11:33.449Z,8.50
2022-12-22T23:14:01.571Z,8.50
2022-12-22T23:16:33.885Z,8.50
2022-12-22T23:19:07.408Z,8.50
2022-12-22T23:21:35.798Z,8.50
2022-12-22T23:24:03.922Z,8.50
2022-12-22T23:26:32.430Z,8.50
2022-12-22T23:29:03.790Z,8.50
2022-12-22T23:31:32.473Z,8.60
2022-12-22T23:34:01.040Z,8.50
2022-12-22T23:36:30.628Z,8.50
2022-12-22T23:38:58.735Z,8.50
2022-12-22T23:41:26.846Z,8.60
2022-12-22T23:43:55.480Z,8.50
2022-12-22T23:46:24.087Z,8.60
2022-12-22T23:48:53.294Z,8.60
2022-12-22T23:51:22.701Z,8.60
2022-12-22T23:53:52.129Z,8.70
2022-12-22T23:56:20.376Z,8.70
2022-12-22T23:58:54.491Z,8.70
